METAR AND TAF INFORMATION
METAR FOR LFMT
ADDS - METARS form results

(0328 UTC 30 March 2020)
Data provider http://aviationweather.gov/metar/data/
 
METAR text: LFMT 300300Z AUTO VRB02KT 9999 FEW001 BKN230 06/00 Q1015 NOSIG
Conditions at: LFMT (FREJORGUES/MONTP, FR) observed 0300 UTC 30 March 2020
Temperature: 6.0°C (43°F)
Dewpoint: 0.0°C (32°F) [RH = 65%]
Pressure (altimeter): 29.97 inches Hg (1015.0 mb)
Winds: variable direction winds at 2 MPH (2 knots; 1.0 m/s)
Visibility: 6 or more miles (10+ km)
Ceiling: 23000 feet AGL
Clouds: few clouds at 100 feet AGL
broken clouds at 23000 feet AGL
Weather: no significant weather observed at this time

METAR text: LFMT 300230Z AUTO 33007KT CAVOK 06/00 Q1015 NOSIG
Conditions at: LFMT (FREJORGUES/MONTP, FR) observed 0230 UTC 30 March 2020
Temperature: 6.0°C (43°F)
Dewpoint: 0.0°C (32°F) [RH = 65%]
Pressure (altimeter): 29.97 inches Hg (1015.0 mb)
Winds: from the NNW (330 degrees) at 8 MPH (7 knots; 3.6 m/s)
Visibility: 6 or more miles (10+ km)
Ceiling: ceiling and visibility are OK
Clouds: unknown
Weather: no significant weather observed at this time

Forecast for: LFMT (FREJORGUES/MONTP, FR)
Text: TAF LFMT 300200Z 3003/3103 01010KT CAVOK
Forecast period: 0300 UTC 30 March 2020 to 0300 UTC 31 March 2020
Forecast type: FROM: standard forecast or significant change
Winds: from the N (10 degrees) at 12 MPH (10 knots; 5.1 m/s)
Visibility: 6 or more miles 10+ km)
Ceiling: unknown
Clouds: missing
Weather: NSW  (no significant weather)
Text: TEMPO 3012/3019 21010KT
Forecast period: 1200 to 1900 UTC 30 March 2020
Forecast type: TEMPORARY: The following changes expected for less than half the time period
Winds: from the SSW (210 degrees) at 12 MPH (10 knots; 5.1 m/s)
Visibility: missing
Ceiling: unknown
Clouds: missing
Weather: no significant weather forecast for this period

 AIRPORT MAP

 RUNWAY INFORMATION
Runway 12L Runway length 8530 ft Runway width 164 ft
Runway elevation 17 ft Runway displaced threshold 0 ft Runway heading 124
Runway 30R Runway length 8530 ft Runway width 164 ft
Runway elevation 6 ft Runway displaced threshold 0 ft Runway heading 304
Runway 12R Runway length 3609 ft Runway width 98 ft
Runway elevation 10 ft Runway displaced threshold 328 ft Runway heading 124
Runway 30L Runway length 3609 ft Runway width 98 ft
Runway elevation 7 ft Runway displaced threshold 0 ft Runway heading 304

 AIRPORT FREQUENCIES
Type APP Name MONTPELLIE Frequency 120.375 MHZ
Type ATIS Name MONTPELLIE Frequency 124.125 MHZ
Type GND Name MONTPELLIE Frequency 121.95 MHZ
Type TWR Name MONTPELLIE Frequency 118.2 MHZ
Type TWR Name MONTPELLIE Frequency 118.775 MHZ

 AIRPORT NEAR NAVIGATION AIDS
Type VOR-DME Name Mediterranee Frequency 114450 KHZ



Powered by Virtual Airlines Manager [v2.6.2]